Norwood, CO (81423)

2:20 AM MST on February 08, 2016 (GMT -0700)
Ed Joe Canyon | | Change Station
CLOSE
Current Station
Personal Weather Station
Location: Norwood, CO
Elevation: 7592 ft
Nearby Weather Stations

Elev 7592 ft 38.08 °N, 108.28 °W | Updated 3 minutes ago

Clear
Clear
30.5 °F
Feels Like 30 °F
N
0.0
Wind Variable Wind from WNW
Gusts 3.0 mph

Today
High -- | Low -- °F
--% Chance of Precip.
Yesterday
High -- | Low -- °F
Precip. -- in
Pressure 30.54 in
Visibility 10.0 miles
Clouds Clear
Windchill 30 °F
Dew Point 11 °F
Humidity 44%
Rainfall 0.00 in
Snow Depth Not available.
7:11 AM 5:43 PM
Waning Crescent, 0% visible
METAR KAIB 080915Z AUTO 10003KT 10SM CLR M05/M08 A3054 RMK AO2
Pressure 30.54 in
Visibility 10.0 miles
Clouds Clear
Windchill 30 °F
Dew Point 11 °F
Humidity 44%
Rainfall 0.00 in
Snow Depth Not available.
7:11 AM 5:43 PM
Waning Crescent, 0% visible
METAR KAIB 080915Z AUTO 10003KT 10SM CLR M05/M08 A3054 RMK AO2

10-Day Weather Forecast

Almanac

Astronomy

Feb. 08, 2016 Rise Set
Actual Time
Civil Twilight
Nautical Twilight
Astronomical Twilight
Moon
Length of Visible Light
Length of Day
Tomorrow will be .
, % of the Moon is Illuminated

Today's Extremes

State Highs State Lows

Community

WunderPhotos

Upload Photos

1,891,412 photos uploaded!

WunderBlog® & News

Nearby

Air Quality

  Air Quality AQ Index Pollutant
Not available.

Snow Depth

Station Depth Elevation

Earthquake Activity

City Distance Mag. Time & Date
Minimum magnitude displayed is 2.5.

Coastal Water Temperatures

Place Temperature

Stations

Nearby Weather Stations

Station Location Temp. Windchill Dew Point Humidity Wind Precip. Elev Updated Type
                   

Watches & Warnings

There are currently no watches in effect.